Terminal Aerodrome Forecast
Issued by NWS Spokane, WA

Home | Current Version | Previous Version | Text Only | Print | Product List | Glossary On
Versions: 1 2 3 4 5 6 7 8 9 10 11 12 13
000
FTUS46 KOTX 222330
TAFGEG
TAF
KGEG 222330Z 2300/2324 23006KT P6SM SKC
     FM230800 16005KT P6SM SKC
     FM231500 17008G13KT P6SM SCT150
     FM231800 21009G15KT P6SM BKN150=

USA.gov is the U.S. government's official web portal to all federal, state and local government web resources and services.